createdAt,value
2019-05-23T00:00:52.447Z,101605.13
2019-05-23T00:03:27.586Z,101599.31
2019-05-23T00:05:59.502Z,101601.34
2019-05-23T00:08:29.217Z,101600.77
2019-05-23T00:11:04.346Z,101600.59
2019-05-23T00:13:43.879Z,101597.48
2019-05-23T00:16:12.355Z,101595.61
2019-05-23T00:18:40.109Z,101601.91
2019-05-23T00:21:08.610Z,101608.33
2019-05-23T00:23:38.415Z,101605.66
2019-05-23T00:26:07.029Z,101600.78
2019-05-23T00:28:35.443Z,101602.05
2019-05-23T00:31:04.855Z,101599.41
2019-05-23T00:33:33.079Z,101601.55
2019-05-23T00:36:02.377Z,101601.92
2019-05-23T00:38:31.614Z,101602.71
2019-05-23T00:40:59.879Z,101600.94
2019-05-23T00:43:27.705Z,101607.41
2019-05-23T00:45:55.648Z,101615.12
2019-05-23T00:48:25.178Z,101606.41
2019-05-23T00:50:53.382Z,101604.59
2019-05-23T00:53:21.246Z,101607.92
2019-05-23T00:55:48.999Z,101611.76
2019-05-23T00:58:18.236Z,101617.34
2019-05-23T01:00:46.003Z,101614.19
2019-05-23T01:03:14.584Z,101612.81
2019-05-23T01:05:43.121Z,101614.48
2019-05-23T01:08:11.569Z,101614.90
2019-05-23T01:10:40.254Z,101615.63
2019-05-23T01:13:08.650Z,101608.64
2019-05-23T01:15:38.114Z,101615.55
2019-05-23T01:18:06.534Z,101612.87
2019-05-23T01:20:38.845Z,101611.52
2019-05-23T01:23:08.337Z,101611.07
2019-05-23T01:25:36.956Z,101612.67
2019-05-23T01:28:06.350Z,101617.29
2019-05-23T01:30:41.502Z,101621.55
2019-05-23T01:33:10.452Z,101620.55
2019-05-23T01:35:38.658Z,101619.11
2019-05-23T01:38:06.438Z,101620.38
2019-05-23T01:40:35.834Z,101621.19
2019-05-23T01:43:04.630Z,101627.23
2019-05-23T01:45:34.517Z,101624.19
2019-05-23T01:48:02.437Z,101625.84
2019-05-23T01:50:30.370Z,101631.45
2019-05-23T01:53:01.591Z,101629.58
2019-05-23T01:55:29.391Z,101635.55
2019-05-23T01:57:57.292Z,101637.55
2019-05-23T02:00:26.706Z,101630.94
2019-05-23T02:02:54.827Z,101634.71
2019-05-23T02:05:22.556Z,101631.99
2019-05-23T02:07:50.330Z,101634.47
2019-05-23T02:10:18.152Z,101632.59
2019-05-23T02:12:47.740Z,101633.28
2019-05-23T02:15:15.696Z,101637.37
2019-05-23T02:17:43.769Z,101629.80
2019-05-23T02:20:13.145Z,101628.73
2019-05-23T02:22:41.564Z,101629.45
2019-05-23T02:25:10.245Z,101629.78
2019-05-23T02:27:38.453Z,101628.78
2019-05-23T02:30:07.327Z,101620.85
2019-05-23T02:32:35.452Z,101620.72
2019-05-23T02:35:07.384Z,101620.56
2019-05-23T02:37:42.785Z,101619.52
2019-05-23T02:40:13.876Z,101619.39
2019-05-23T02:42:43.286Z,101621.42
2019-05-23T02:45:12.766Z,101619.55
2019-05-23T02:47:42.172Z,101622.45
2019-05-23T02:50:13.166Z,101622.74
2019-05-23T02:52:44.287Z,101621.77
2019-05-23T02:55:15.252Z,101625.12
2019-05-23T02:57:43.912Z,101631.50
2019-05-23T03:00:13.908Z,101630.97
2019-05-23T03:02:47.193Z,101631.78
2019-05-23T03:05:16.635Z,101636.02
2019-05-23T03:07:45.190Z,101636.44
2019-05-23T03:10:13.708Z,101640.21
2019-05-23T03:12:43.733Z,101641.92
2019-05-23T03:15:12.929Z,101643.22
2019-05-23T03:17:41.244Z,101647.88
2019-05-23T03:20:09.058Z,101646.92
2019-05-23T03:22:44.808Z,101649.52
2019-05-23T03:25:24.984Z,101647.34
2019-05-23T03:27:53.016Z,101644.69
2019-05-23T03:30:22.419Z,101647.28
2019-05-23T03:32:51.804Z,101653.39
2019-05-23T03:35:27.003Z,101646.92
2019-05-23T03:37:54.995Z,101644.34
2019-05-23T03:40:23.921Z,101649.62
2019-05-23T03:42:52.377Z,101642.38
2019-05-23T03:45:27.700Z,101639.38
2019-05-23T03:47:55.631Z,101642.91
2019-05-23T03:50:24.744Z,101642.62
2019-05-23T03:52:52.862Z,101648.31
2019-05-23T03:55:21.501Z,101637.13
2019-05-23T03:57:49.918Z,101644.12
2019-05-23T04:00:21.987Z,101643.09
2019-05-23T04:02:51.414Z,101647.32
2019-05-23T04:05:20.230Z,101648.10
2019-05-23T04:07:48.931Z,101647.27
2019-05-23T04:10:16.752Z,101649.88
2019-05-23T04:12:45.144Z,101615.50
2019-05-23T04:15:13.377Z,101655.36
2019-05-23T04:17:41.480Z,101653.96
2019-05-23T04:20:09.963Z,101653.30
2019-05-23T04:22:37.727Z,101655.27
2019-05-23T04:25:06.219Z,101648.88
2019-05-23T04:27:34.558Z,101659.83
2019-05-23T04:30:02.478Z,101660.30
2019-05-23T04:32:30.322Z,101655.13
2019-05-23T04:34:58.252Z,101657.84
2019-05-23T04:37:25.991Z,101661.83
2019-05-23T04:39:54.157Z,101661.38
2019-05-23T04:42:21.991Z,101667.45
2019-05-23T04:44:49.732Z,101663.13
2019-05-23T04:47:17.689Z,101669.42
2019-05-23T04:49:45.532Z,101663.28
2019-05-23T04:52:13.733Z,101667.19
2019-05-23T04:54:41.695Z,101662.31
2019-05-23T04:57:09.519Z,101658.73
2019-05-23T04:59:37.261Z,101661.75
2019-05-23T05:02:05.033Z,101661.70
2019-05-23T05:04:33.270Z,101666.45
2019-05-23T05:07:01.015Z,101663.80
2019-05-23T05:09:30.534Z,101668.56
2019-05-23T05:11:58.460Z,101668.89
2019-05-23T05:14:26.785Z,101677.06
2019-05-23T05:16:54.681Z,101672.66
2019-05-23T05:19:24.568Z,101677.86
2019-05-23T05:21:52.303Z,101679.55
2019-05-23T05:24:20.066Z,101659.66
2019-05-23T05:26:47.820Z,101695.59
2019-05-23T05:29:15.792Z,101693.42
2019-05-23T05:31:43.560Z,101696.06
2019-05-23T05:34:11.303Z,101695.69
2019-05-23T05:36:39.276Z,101693.58
2019-05-23T05:39:08.773Z,101698.42
2019-05-23T05:41:36.984Z,101697.69
2019-05-23T05:44:05.816Z,101700.45
2019-05-23T05:46:34.007Z,101699.14
2019-05-23T05:49:01.785Z,101700.94
2019-05-23T05:51:30.004Z,101701.86
2019-05-23T05:53:58.023Z,101712.39
2019-05-23T05:56:25.797Z,101705.20
2019-05-23T05:58:53.671Z,101707.97
2019-05-23T06:01:33.247Z,101713.39
2019-05-23T06:03:51.596Z,101716.06
2019-05-23T06:06:21.113Z,101721.00
2019-05-23T06:08:50.573Z,101717.69
2019-05-23T06:11:19.284Z,101717.84
2019-05-23T06:13:47.061Z,101721.48
2019-05-23T06:16:14.816Z,101721.25
2019-05-23T06:18:43.330Z,101724.55
2019-05-23T06:21:13.792Z,101714.37
2019-05-23T06:23:42.120Z,101720.67
2019-05-23T06:26:09.862Z,101715.17
2019-05-23T06:28:38.012Z,101718.31
2019-05-23T06:31:06.543Z,101723.66
2019-05-23T06:33:34.545Z,101729.02
2019-05-23T06:36:02.857Z,101716.94
2019-05-23T06:38:30.715Z,101721.72
2019-05-23T06:40:58.617Z,101720.41
2019-05-23T06:43:27.300Z,101727.75
2019-05-23T06:45:55.304Z,101728.19
2019-05-23T06:48:23.408Z,101729.16
2019-05-23T06:50:51.179Z,101732.72
2019-05-23T06:53:18.998Z,101735.02
2019-05-23T06:55:46.738Z,101732.97
2019-05-23T06:58:14.899Z,101732.23
2019-05-23T07:00:42.964Z,101730.19
2019-05-23T07:03:12.928Z,101726.31
2019-05-23T07:05:41.394Z,101731.66
2019-05-23T07:08:09.290Z,101735.21
2019-05-23T07:10:37.204Z,101730.94
2019-05-23T07:13:05.037Z,101732.64
2019-05-23T07:15:32.851Z,101733.16
2019-05-23T07:18:00.617Z,101730.66
2019-05-23T07:20:28.439Z,101727.73
2019-05-23T07:22:56.640Z,101741.36
2019-05-23T07:25:26.857Z,101733.23
2019-05-23T07:27:54.660Z,101737.77
2019-05-23T07:30:23.524Z,101742.22
2019-05-23T07:32:51.274Z,101741.52
2019-05-23T07:35:19.629Z,101736.45
2019-05-23T07:37:47.375Z,101739.19
2019-05-23T07:40:15.132Z,101740.11
2019-05-23T07:42:43.369Z,101736.74
2019-05-23T07:45:12.912Z,101733.80
2019-05-23T07:47:41.632Z,101735.22
2019-05-23T07:50:10.030Z,101732.30
2019-05-23T07:52:39.308Z,101730.16
2019-05-23T07:55:15.636Z,101730.27
2019-05-23T07:57:43.381Z,101729.92
2019-05-23T08:00:15.491Z,101738.73
2019-05-23T08:02:43.902Z,101737.88
2019-05-23T08:05:13.232Z,101738.36
2019-05-23T08:07:41.191Z,101737.55
2019-05-23T08:10:09.465Z,101741.57
2019-05-23T08:12:37.618Z,101743.85
2019-05-23T08:15:06.967Z,101749.58
2019-05-23T08:17:34.807Z,101744.84
2019-05-23T08:20:02.541Z,101746.19
2019-05-23T08:22:30.478Z,101741.03
2019-05-23T08:24:58.456Z,101744.59
2019-05-23T08:27:26.261Z,101739.83
2019-05-23T08:29:56.509Z,101745.08
2019-05-23T08:32:24.457Z,101734.60
2019-05-23T08:34:52.283Z,101737.70
2019-05-23T08:37:20.110Z,101734.70
2019-05-23T08:39:48.848Z,101746.06
2019-05-23T08:42:17.305Z,101736.46
2019-05-23T08:44:45.280Z,101738.20
2019-05-23T08:47:13.110Z,101743.04
2019-05-23T08:49:41.645Z,101743.92
2019-05-23T08:52:09.403Z,101742.17
2019-05-23T08:54:37.450Z,101680.45
2019-05-23T08:57:07.052Z,101744.82
2019-05-23T08:59:35.157Z,101736.55
2019-05-23T09:02:03.211Z,101747.51
2019-05-23T09:04:30.929Z,101743.14
2019-05-23T09:06:58.778Z,101734.41
2019-05-23T09:09:29.957Z,101742.33
2019-05-23T09:11:57.095Z,101748.90
2019-05-23T09:14:25.325Z,101747.12
2019-05-23T09:16:53.172Z,101746.28
2019-05-23T09:19:21.392Z,101744.08
2019-05-23T09:21:49.318Z,101750.62
2019-05-23T09:24:17.180Z,101759.41
2019-05-23T09:26:46.218Z,101751.94
2019-05-23T09:29:14.014Z,101762.44
2019-05-23T09:31:41.809Z,101759.37
2019-05-23T09:34:09.607Z,101758.48
2019-05-23T09:36:37.424Z,101758.05
2019-05-23T09:39:07.750Z,101758.05
2019-05-23T09:41:36.180Z,101757.20
2019-05-23T09:44:03.922Z,101751.51
2019-05-23T09:46:31.716Z,101753.23
2019-05-23T09:48:59.530Z,101762.42
2019-05-23T09:51:27.340Z,101761.56
2019-05-23T09:53:55.138Z,101769.00
2019-05-23T09:56:22.902Z,101755.87
2019-05-23T09:58:50.652Z,101761.98
2019-05-23T10:01:19.002Z,101757.17
2019-05-23T10:03:46.799Z,101769.43
2019-05-23T10:06:14.545Z,101763.75
2019-05-23T10:08:42.338Z,101775.14
2019-05-23T10:11:10.087Z,101771.66
2019-05-23T10:13:39.562Z,101772.09
2019-05-23T10:16:09.342Z,101771.66
2019-05-23T10:18:37.323Z,101767.72
2019-05-23T10:21:05.153Z,101768.58
2019-05-23T10:23:33.275Z,101768.59
2019-05-23T10:26:01.079Z,101770.78
2019-05-23T10:28:29.152Z,101765.95
2019-05-23T10:30:57.017Z,101766.83
2019-05-23T10:33:24.766Z,101765.95
2019-05-23T10:36:00.310Z,101762.88
2019-05-23T10:38:22.052Z,101753.68
2019-05-23T10:40:49.822Z,101747.54
2019-05-23T10:43:17.651Z,101746.66
2019-05-23T10:45:45.456Z,101753.23
2019-05-23T10:48:13.984Z,101743.55
2019-05-23T10:50:44.711Z,101749.67
2019-05-23T10:53:11.351Z,101744.88
2019-05-23T10:55:39.177Z,101738.27
2019-05-23T10:58:07.056Z,101743.07
2019-05-23T11:00:36.453Z,101738.69
2019-05-23T11:03:05.243Z,101743.97
2019-05-23T11:05:33.264Z,101743.11
2019-05-23T11:08:02.934Z,101747.06
2019-05-23T11:10:30.917Z,101743.55
2019-05-23T11:12:58.633Z,101745.31
2019-05-23T11:15:26.411Z,101746.64
2019-05-23T11:17:54.631Z,101743.55
2019-05-23T11:20:22.389Z,101741.80
2019-05-23T11:22:50.182Z,101745.30
2019-05-23T11:25:19.310Z,101740.48
2019-05-23T11:27:47.560Z,101739.64
2019-05-23T11:30:20.786Z,101730.02
2019-05-23T11:32:48.500Z,101733.52
2019-05-23T11:35:16.255Z,101727.37
2019-05-23T11:37:44.087Z,101731.28
2019-05-23T11:40:11.917Z,101732.14
2019-05-23T11:42:39.662Z,101726.02
2019-05-23T11:45:07.454Z,101726.41
2019-05-23T11:47:35.370Z,101723.78
2019-05-23T11:50:03.686Z,101728.14
2019-05-23T11:52:31.550Z,101720.23
2019-05-23T11:54:59.871Z,101722.40
2019-05-23T11:57:27.883Z,101724.56
2019-05-23T11:59:55.741Z,101718.41
2019-05-23T12:02:28.122Z,101720.61
2019-05-23T12:04:57.748Z,101715.77
2019-05-23T12:07:27.180Z,101714.84
2019-05-23T12:09:54.964Z,101706.07
2019-05-23T12:12:22.772Z,101711.28
2019-05-23T12:14:50.542Z,101707.73
2019-05-23T12:17:19.579Z,101705.05
2019-05-23T12:19:47.696Z,101697.98
2019-05-23T12:22:16.590Z,101707.13
2019-05-23T12:24:44.312Z,101699.58
2019-05-23T12:27:13.812Z,101697.36
2019-05-23T12:29:41.616Z,101699.96
2019-05-23T12:32:11.250Z,101696.94
2019-05-23T12:34:38.995Z,101688.20
2019-05-23T12:37:18.099Z,101697.04
2019-05-23T12:39:36.494Z,101689.62
2019-05-23T12:42:04.330Z,101686.53
2019-05-23T12:44:32.128Z,101692.67
2019-05-23T12:47:00.782Z,101691.34
2019-05-23T12:49:30.463Z,101689.62
2019-05-23T12:51:58.426Z,101689.62
2019-05-23T12:54:26.183Z,101690.04
2019-05-23T12:56:53.994Z,101687.37
2019-05-23T12:59:21.811Z,101691.74
2019-05-23T13:01:51.638Z,101681.63
2019-05-23T13:04:20.102Z,101682.46
2019-05-23T13:06:47.981Z,101670.58
2019-05-23T13:09:15.716Z,101672.27
2019-05-23T13:11:43.554Z,101669.56
2019-05-23T13:14:11.496Z,101668.20
2019-05-23T13:16:39.338Z,101662.45
2019-05-23T13:19:07.237Z,101661.95
2019-05-23T13:21:35.093Z,101662.77
2019-05-23T13:24:03.032Z,101663.59
2019-05-23T13:26:30.793Z,101663.56
2019-05-23T13:28:58.590Z,101661.79
2019-05-23T13:31:26.466Z,101665.25
2019-05-23T13:33:56.251Z,101655.98
2019-05-23T13:36:24.051Z,101655.94
2019-05-23T13:38:52.084Z,101659.38
2019-05-23T13:41:19.938Z,101651.91
2019-05-23T13:43:47.736Z,101650.09
2019-05-23T13:46:15.483Z,101653.55
2019-05-23T13:48:43.251Z,101654.77
2019-05-23T13:51:11.061Z,101645.53
2019-05-23T13:53:39.990Z,101645.48
2019-05-23T13:56:07.730Z,101641.47
2019-05-23T13:58:35.912Z,101638.34
2019-05-23T14:01:08.831Z,101631.73
2019-05-23T14:03:33.161Z,101633.00
2019-05-23T14:06:01.133Z,101630.02
2019-05-23T14:08:28.897Z,101627.84
2019-05-23T14:10:58.307Z,101637.06
2019-05-23T14:13:26.899Z,101634.38
2019-05-23T14:15:54.748Z,101631.23
2019-05-23T14:18:24.150Z,101637.30
2019-05-23T14:20:51.936Z,101632.32
2019-05-23T14:23:24.446Z,101633.13
2019-05-23T14:25:52.941Z,101628.25
2019-05-23T14:28:20.793Z,101632.72
2019-05-23T14:30:59.134Z,101627.49
2019-05-23T14:33:37.852Z,101620.09
2019-05-23T14:36:10.296Z,101623.09
2019-05-23T14:38:38.232Z,101619.47
2019-05-23T14:41:07.571Z,101618.03
2019-05-23T14:43:35.814Z,101614.47
2019-05-23T14:46:05.719Z,101611.90
2019-05-23T14:48:51.808Z,101610.98
2019-05-23T14:51:36.269Z,101609.19
2019-05-23T14:54:21.044Z,101609.07
2019-05-23T14:56:48.818Z,101609.83
2019-05-23T14:59:17.276Z,101604.77
2019-05-23T15:01:46.022Z,101603.77
2019-05-23T15:04:14.157Z,101610.22
2019-05-23T15:06:41.971Z,101611.14
2019-05-23T15:09:09.802Z,101606.31
2019-05-23T15:11:39.035Z,101603.75
2019-05-23T15:14:06.777Z,101602.56
2019-05-23T15:16:34.939Z,101603.55
2019-05-23T15:19:03.814Z,101603.17
2019-05-23T15:21:31.563Z,101601.48
2019-05-23T15:23:59.391Z,101597.59
2019-05-23T15:26:27.138Z,101597.23
2019-05-23T15:28:54.890Z,101602.59
2019-05-23T15:31:22.687Z,101598.30
2019-05-23T15:33:50.463Z,101593.88
2019-05-23T15:36:18.466Z,101593.48
2019-05-23T15:38:46.330Z,101597.49
2019-05-23T15:41:14.038Z,101594.51
2019-05-23T15:43:41.786Z,101584.83
2019-05-23T15:46:09.608Z,101590.55
2019-05-23T15:48:37.347Z,101593.20
2019-05-23T15:51:06.028Z,101593.19
2019-05-23T15:53:35.446Z,101591.77
2019-05-23T15:56:26.776Z,101596.45
2019-05-23T15:58:56.997Z,101589.28
2019-05-23T16:01:32.565Z,101595.34
2019-05-23T16:04:01.979Z,101586.53
2019-05-23T16:06:31.354Z,101592.67
2019-05-23T16:08:59.565Z,101583.45
2019-05-23T16:11:27.378Z,101588.35
2019-05-23T16:13:55.376Z,101593.69
2019-05-23T16:16:23.280Z,101584.84
2019-05-23T16:18:51.968Z,101586.09
2019-05-23T16:21:20.319Z,101587.41
2019-05-23T16:23:48.075Z,101581.70
2019-05-23T16:26:15.943Z,101582.05
2019-05-23T16:28:43.702Z,101581.00
2019-05-23T16:31:11.498Z,101578.61
2019-05-23T16:33:39.351Z,101580.16
2019-05-23T16:36:07.115Z,101575.53
2019-05-23T16:38:36.205Z,101574.75
2019-05-23T16:41:04.739Z,101570.48
2019-05-23T16:43:32.729Z,101578.49
2019-05-23T16:46:00.555Z,101576.89
2019-05-23T16:48:29.255Z,101585.16
2019-05-23T16:50:57.016Z,101582.13
2019-05-23T16:53:24.864Z,101582.22
2019-05-23T16:56:03.402Z,101588.11
2019-05-23T16:58:35.802Z,101584.72
2019-05-23T17:01:23.218Z,101587.50
2019-05-23T17:03:57.969Z,101588.44
2019-05-23T17:06:30.497Z,101581.77
2019-05-23T17:09:08.881Z,101586.22
2019-05-23T17:11:53.370Z,101581.53
2019-05-23T17:14:22.754Z,101582.59
2019-05-23T17:16:54.953Z,101586.54
2019-05-23T17:19:27.500Z,101588.16
2019-05-23T17:21:59.675Z,101584.48
2019-05-23T17:24:29.160Z,101583.45
2019-05-23T17:27:04.718Z,101586.80
2019-05-23T17:29:34.089Z,101587.01
2019-05-23T17:32:01.998Z,101581.05
2019-05-23T17:34:29.765Z,101576.81
2019-05-23T17:36:57.534Z,101577.38
2019-05-23T17:39:25.808Z,101580.17
2019-05-23T17:41:53.612Z,101575.83
2019-05-23T17:44:21.346Z,101573.27
2019-05-23T17:46:49.089Z,101577.77
2019-05-23T17:49:16.873Z,101577.92
2019-05-23T17:51:44.647Z,101574.98
2019-05-23T17:54:12.903Z,101577.29
2019-05-23T17:56:40.694Z,101574.34
2019-05-23T17:59:10.271Z,101574.88
2019-05-23T18:01:38.376Z,101583.30
2019-05-23T18:04:06.181Z,101585.56
2019-05-23T18:06:33.986Z,101575.52
2019-05-23T18:09:02.305Z,101569.88
2019-05-23T18:11:30.079Z,101571.23
2019-05-23T18:13:57.856Z,101577.40
2019-05-23T18:16:25.590Z,101573.94
2019-05-23T18:18:53.513Z,101573.97
2019-05-23T18:21:22.316Z,101567.46
2019-05-23T18:23:50.155Z,101569.29
2019-05-23T18:26:18.590Z,101567.14
2019-05-23T18:28:46.494Z,101575.09
2019-05-23T18:31:18.718Z,101572.06
2019-05-23T18:33:46.506Z,101573.02
2019-05-23T18:36:14.269Z,101570.44
2019-05-23T18:38:42.016Z,101566.97
2019-05-23T18:41:10.195Z,101569.16
2019-05-23T18:43:38.172Z,101567.89
2019-05-23T18:46:07.571Z,101575.38
2019-05-23T18:48:36.020Z,101574.53
2019-05-23T18:51:03.945Z,101581.55
2019-05-23T18:53:31.692Z,101582.45
2019-05-23T18:55:59.460Z,101582.94
2019-05-23T18:58:27.271Z,101586.48
2019-05-23T19:01:01.260Z,101584.75
2019-05-23T19:03:30.327Z,101584.77
2019-05-23T19:05:58.090Z,101586.11
2019-05-23T19:08:26.004Z,101589.17
2019-05-23T19:10:54.265Z,101587.89
2019-05-23T19:13:22.006Z,101592.72
2019-05-23T19:15:49.749Z,101583.05
2019-05-23T19:18:17.567Z,101583.95
2019-05-23T19:20:45.318Z,101590.50
2019-05-23T19:23:13.228Z,101587.89
2019-05-23T19:25:42.176Z,101583.94
2019-05-23T19:28:10.971Z,101584.39
2019-05-23T19:30:38.795Z,101582.20
2019-05-23T19:33:08.258Z,101579.59
2019-05-23T19:35:36.981Z,101578.27
2019-05-23T19:38:05.970Z,101576.52
2019-05-23T19:40:34.597Z,101580.45
2019-05-23T19:43:02.924Z,101584.38
2019-05-23T19:45:30.737Z,101581.33
2019-05-23T19:47:58.536Z,101578.25
2019-05-23T19:50:27.918Z,101577.81
2019-05-23T19:52:55.674Z,101584.34
2019-05-23T19:55:23.473Z,101579.10
2019-05-23T19:57:51.297Z,101580.83
2019-05-23T20:00:20.815Z,101578.14
2019-05-23T20:02:50.435Z,101573.33
2019-05-23T20:05:28.549Z,101575.06
2019-05-23T20:07:56.422Z,101576.37
2019-05-23T20:10:25.340Z,101576.77
2019-05-23T20:12:53.099Z,101576.32
2019-05-23T20:15:21.278Z,101578.89
2019-05-23T20:17:51.630Z,101578.88
2019-05-23T20:20:18.552Z,101578.00
2019-05-23T20:22:47.005Z,101573.17
2019-05-23T20:25:14.752Z,101575.78
2019-05-23T20:27:42.481Z,101578.81
2019-05-23T20:30:11.918Z,101581.39
2019-05-23T20:32:39.666Z,101584.44
2019-05-23T20:35:07.971Z,101577.87
2019-05-23T20:37:35.927Z,101576.09
2019-05-23T20:40:04.751Z,101577.38
2019-05-23T20:42:32.501Z,101584.32
2019-05-23T20:45:02.596Z,101579.49
2019-05-23T20:47:31.039Z,101581.20
2019-05-23T20:49:58.762Z,101576.80
2019-05-23T20:52:26.677Z,101575.42
2019-05-23T20:54:54.476Z,101574.51
2019-05-23T20:57:22.233Z,101574.47
2019-05-23T20:59:50.009Z,101582.30
2019-05-23T21:02:17.883Z,101575.73
2019-05-23T21:04:45.635Z,101572.61
2019-05-23T21:07:13.545Z,101572.13
2019-05-23T21:09:41.354Z,101572.09
2019-05-23T21:12:09.183Z,101569.88
2019-05-23T21:14:37.147Z,101565.47
2019-05-23T21:17:04.897Z,101562.81
2019-05-23T21:19:32.668Z,101563.62
2019-05-23T21:22:00.420Z,101565.72
2019-05-23T21:24:29.744Z,101561.27
2019-05-23T21:26:57.481Z,101557.69
2019-05-23T21:29:25.298Z,101558.89
2019-05-23T21:31:53.032Z,101557.03
2019-05-23T21:34:22.150Z,101554.34
2019-05-23T21:36:50.268Z,101553.32
2019-05-23T21:39:18.177Z,101554.53
2019-05-23T21:41:45.957Z,101551.83
2019-05-23T21:44:13.744Z,101553.08
2019-05-23T21:46:42.587Z,101555.22
2019-05-23T21:49:10.330Z,101553.38
2019-05-23T21:51:38.092Z,101552.45
2019-05-23T21:54:05.924Z,101552.78
2019-05-23T21:56:33.657Z,101547.49
2019-05-23T21:59:01.440Z,101546.52
2019-05-23T22:01:30.830Z,101545.98
2019-05-23T22:04:18.576Z,101539.82
2019-05-23T22:06:54.595Z,101536.67
2019-05-23T22:09:20.359Z,101540.04
2019-05-23T22:11:48.272Z,101534.70
2019-05-23T22:14:16.032Z,101537.20
2019-05-23T22:16:43.838Z,101539.26
2019-05-23T22:19:13.289Z,101537.00
2019-05-23T22:21:41.030Z,101536.02
2019-05-23T22:24:09.269Z,101531.12
2019-05-23T22:26:37.123Z,101538.02
2019-05-23T22:29:06.339Z,101527.95
2019-05-23T22:31:34.400Z,101535.29
2019-05-23T22:34:20.335Z,101528.69
2019-05-23T22:36:48.151Z,101526.44
2019-05-23T22:39:16.955Z,101526.39
2019-05-23T22:41:44.759Z,101524.57
2019-05-23T22:44:12.678Z,101517.10
2019-05-23T22:46:40.528Z,101520.02
2019-05-23T22:49:08.376Z,101514.72
2019-05-23T22:51:36.106Z,101516.36
2019-05-23T22:54:04.400Z,101520.22
2019-05-23T22:56:32.201Z,101513.62
2019-05-23T22:58:59.950Z,101515.73
2019-05-23T23:01:29.252Z,101516.06
2019-05-23T23:03:57.038Z,101508.61
2019-05-23T23:06:24.790Z,101506.77
2019-05-23T23:08:52.527Z,101505.38
2019-05-23T23:11:20.468Z,101508.75
2019-05-23T23:13:48.215Z,101509.58
2019-05-23T23:16:15.957Z,101511.68
2019-05-23T23:18:43.735Z,101514.67
2019-05-23T23:21:11.495Z,101505.89
2019-05-23T23:23:39.219Z,101504.55
2019-05-23T23:26:07.070Z,101510.12
2019-05-23T23:28:36.005Z,101500.05
2019-05-23T23:31:04.116Z,101503.91
2019-05-23T23:33:31.918Z,101510.78
2019-05-23T23:35:59.666Z,101502.50
2019-05-23T23:38:27.388Z,101508.52
2019-05-23T23:40:55.168Z,101499.36
2019-05-23T23:43:22.912Z,101503.64
2019-05-23T23:46:08.689Z,101503.55
2019-05-23T23:48:54.495Z,101501.32
2019-05-23T23:51:40.489Z,101497.75
2019-05-23T23:54:26.391Z,101493.27
2019-05-23T23:57:12.049Z,101495.71
2019-05-23T23:59:39.135Z,101493.42
